createdAt,value
2023-05-06T00:00:26.979Z,133.33
2023-05-06T00:01:27.018Z,131.44
2023-05-06T00:02:27.141Z,132.31
2023-05-06T00:03:27.347Z,133.93
2023-05-06T00:04:27.264Z,134.13
2023-05-06T00:05:27.276Z,130.95
2023-05-06T00:06:27.331Z,130.82
2023-05-06T00:07:27.399Z,130.45
2023-05-06T00:08:27.423Z,131.89
2023-05-06T00:09:27.520Z,131.05
2023-05-06T00:10:27.559Z,130.45
2023-05-06T00:11:27.593Z,130.47
2023-05-06T00:12:27.640Z,131.33
2023-05-06T00:13:27.728Z,131.48
2023-05-06T00:14:27.814Z,130.64
2023-05-06T00:15:29.216Z,132.06
2023-05-06T00:16:27.885Z,134.84
2023-05-06T00:18:27.807Z,131.87
2023-05-06T00:19:27.824Z,132.79
2023-05-06T00:20:27.786Z,131.07
2023-05-06T00:21:27.790Z,130.89
2023-05-06T00:22:27.775Z,130.90
2023-05-06T00:23:27.776Z,130.42
2023-05-06T00:24:27.783Z,131.43
2023-05-06T00:25:27.794Z,130.34
2023-05-06T00:26:27.766Z,129.87
2023-05-06T00:27:27.758Z,131.85
2023-05-06T00:28:27.754Z,130.64
2023-05-06T00:29:27.762Z,130.02
2023-05-06T00:30:27.756Z,129.01
2023-05-06T00:31:27.791Z,131.49
2023-05-06T00:32:27.756Z,129.65
2023-05-06T00:33:27.822Z,129.32
2023-05-06T00:34:27.772Z,128.94
2023-05-06T00:35:27.829Z,130.26
2023-05-06T00:36:27.713Z,129.85
2023-05-06T00:37:27.722Z,129.00
2023-05-06T00:38:27.685Z,129.22
2023-05-06T00:39:27.666Z,130.91
2023-05-06T00:40:27.678Z,131.09
2023-05-06T00:41:27.664Z,130.53
2023-05-06T00:42:27.670Z,128.76
2023-05-06T00:43:27.678Z,130.19
2023-05-06T00:44:27.677Z,128.95
2023-05-06T00:45:27.654Z,129.24
2023-05-06T00:46:27.683Z,128.34
2023-05-06T00:47:27.638Z,129.72
2023-05-06T00:48:27.640Z,131.88
2023-05-06T00:49:27.614Z,127.69
2023-05-06T00:50:27.637Z,128.62
2023-05-06T00:51:27.700Z,129.05
2023-05-06T00:52:27.596Z,129.18
2023-05-06T00:53:27.648Z,127.75
2023-05-06T00:54:27.820Z,129.27
2023-05-06T00:55:27.740Z,126.81
2023-05-06T00:56:27.802Z,128.51
2023-05-06T00:57:27.869Z,128.16
2023-05-06T00:58:27.933Z,126.58
2023-05-06T00:59:28.032Z,129.94
2023-05-06T01:00:28.099Z,127.37
2023-05-06T01:01:28.156Z,127.06
2023-05-06T01:02:39.632Z,127.41
2023-05-06T01:03:29.327Z,127.65
2023-05-06T01:04:28.188Z,128.11
2023-05-06T01:05:28.189Z,128.44
2023-05-06T01:06:28.188Z,128.45
2023-05-06T01:07:28.284Z,127.63
2023-05-06T01:08:28.155Z,128.94
2023-05-06T01:09:28.164Z,126.51
2023-05-06T01:10:28.144Z,129.07
2023-05-06T01:11:28.170Z,127.98
2023-05-06T01:12:28.205Z,127.55
2023-05-06T01:13:28.293Z,129.50
2023-05-06T01:14:28.326Z,125.11
2023-05-06T01:15:28.359Z,126.75
2023-05-06T01:16:28.444Z,128.85
2023-05-06T01:17:28.544Z,127.47
2023-05-06T01:18:28.537Z,126.49
2023-05-06T01:19:28.652Z,127.76
2023-05-06T01:20:28.668Z,128.05
2023-05-06T01:21:28.765Z,129.27
2023-05-06T01:22:28.784Z,125.25
2023-05-06T01:23:28.885Z,127.71
2023-05-06T01:24:28.907Z,126.28
2023-05-06T01:25:28.948Z,126.82
2023-05-06T01:26:29.012Z,126.21
2023-05-06T01:27:29.128Z,126.20
2023-05-06T01:28:29.124Z,128.42
2023-05-06T01:29:29.245Z,125.08
2023-05-06T01:30:29.291Z,126.21
2023-05-06T01:31:29.349Z,126.02
2023-05-06T01:32:29.436Z,125.40
2023-05-06T01:33:29.612Z,129.25
2023-05-06T01:34:29.517Z,128.06
2023-05-06T01:35:29.599Z,128.07
2023-05-06T01:36:29.595Z,126.86
2023-05-06T01:37:29.693Z,124.03
2023-05-06T01:38:29.780Z,123.83
2023-05-06T01:39:29.859Z,126.21
2023-05-06T01:40:29.877Z,126.64
2023-05-06T01:41:29.926Z,125.08
2023-05-06T01:42:30.001Z,124.75
2023-05-06T01:43:30.964Z,124.88
2023-05-06T01:44:29.995Z,125.52
2023-05-06T01:45:29.962Z,124.50
2023-05-06T01:46:30.002Z,124.12
2023-05-06T01:47:29.982Z,126.73
2023-05-06T01:48:29.915Z,124.22
2023-05-06T01:49:29.919Z,123.45
2023-05-06T01:50:29.919Z,124.07
2023-05-06T01:51:29.939Z,125.31
2023-05-06T01:52:30.010Z,124.28
2023-05-06T01:53:30.062Z,123.39
2023-05-06T01:54:30.109Z,124.34
2023-05-06T01:55:30.185Z,125.69
2023-05-06T01:56:30.235Z,124.07
2023-05-06T01:57:30.239Z,123.29
2023-05-06T01:58:30.278Z,124.58
2023-05-06T01:59:30.275Z,122.97
2023-05-06T02:00:30.322Z,121.14
2023-05-06T02:01:30.380Z,123.45
2023-05-06T02:02:30.433Z,124.06
2023-05-06T02:03:30.536Z,123.51
2023-05-06T02:04:30.494Z,122.30
2023-05-06T02:05:30.518Z,124.32
2023-05-06T02:06:30.585Z,120.27
2023-05-06T02:07:30.591Z,123.98
2023-05-06T02:08:30.611Z,123.95
2023-05-06T02:09:30.635Z,122.46
2023-05-06T02:10:30.696Z,123.05
2023-05-06T02:11:30.826Z,122.86
2023-05-06T02:12:30.817Z,121.53
2023-05-06T02:13:30.861Z,120.26
2023-05-06T02:14:30.918Z,122.24
2023-05-06T02:15:30.965Z,124.69
2023-05-06T02:16:31.115Z,121.26
2023-05-06T02:17:31.075Z,122.10
2023-05-06T02:18:31.094Z,121.80
2023-05-06T02:19:31.135Z,122.10
2023-05-06T02:20:31.188Z,122.02
2023-05-06T02:21:31.224Z,122.68
2023-05-06T02:22:31.266Z,120.83
2023-05-06T02:23:31.356Z,119.82
2023-05-06T02:24:31.396Z,122.69
2023-05-06T02:25:31.466Z,121.42
2023-05-06T02:26:31.513Z,121.41
2023-05-06T02:27:31.570Z,120.59
2023-05-06T02:28:31.669Z,122.06
2023-05-06T02:29:31.718Z,120.55
2023-05-06T02:30:31.737Z,120.26
2023-05-06T02:31:31.795Z,121.28
2023-05-06T02:32:31.856Z,121.02
2023-05-06T02:33:31.906Z,120.49
2023-05-06T02:34:31.946Z,121.05
2023-05-06T02:35:32.002Z,122.28
2023-05-06T02:36:32.034Z,122.39
2023-05-06T02:37:32.091Z,118.89
2023-05-06T02:38:32.166Z,122.99
2023-05-06T02:39:32.212Z,120.92
2023-05-06T02:40:32.253Z,119.28
2023-05-06T02:41:32.325Z,123.19
2023-05-06T02:42:32.431Z,118.86
2023-05-06T02:43:32.443Z,121.51
2023-05-06T02:44:32.399Z,119.30
2023-05-06T02:45:32.461Z,119.79
2023-05-06T02:46:32.491Z,122.19
2023-05-06T02:47:32.511Z,119.41
2023-05-06T02:48:32.550Z,117.19
2023-05-06T02:49:32.567Z,120.84
2023-05-06T02:50:32.657Z,120.02
2023-05-06T02:51:32.704Z,117.23
2023-05-06T02:52:32.741Z,119.66
2023-05-06T02:53:32.813Z,118.59
2023-05-06T02:54:32.879Z,117.69
2023-05-06T02:55:32.922Z,117.99
2023-05-06T02:56:32.965Z,117.20
2023-05-06T02:57:32.967Z,118.89
2023-05-06T02:58:32.993Z,116.37
2023-05-06T02:59:33.092Z,118.46
2023-05-06T03:00:33.063Z,117.23
2023-05-06T03:01:33.225Z,119.32
2023-05-06T03:02:33.181Z,120.09
2023-05-06T03:03:33.175Z,117.73
2023-05-06T03:04:33.259Z,116.60
2023-05-06T03:05:33.235Z,120.65
2023-05-06T03:06:33.265Z,119.91
2023-05-06T03:07:33.283Z,117.55
2023-05-06T03:08:33.363Z,116.50
2023-05-06T03:09:33.405Z,116.88
2023-05-06T03:10:33.452Z,117.64
2023-05-06T03:11:33.522Z,116.64
2023-05-06T03:12:33.536Z,116.52
2023-05-06T03:13:33.550Z,118.41
2023-05-06T03:14:33.588Z,118.81
2023-05-06T03:15:33.809Z,116.88
2023-05-06T03:16:33.713Z,117.97
2023-05-06T03:17:33.740Z,118.67
2023-05-06T03:18:33.769Z,117.83
2023-05-06T03:19:33.773Z,114.87
2023-05-06T03:20:33.822Z,118.87
2023-05-06T03:21:33.901Z,117.91
2023-05-06T03:22:33.880Z,116.76
2023-05-06T03:23:33.874Z,118.47
2023-05-06T03:24:33.892Z,117.40
2023-05-06T03:25:33.975Z,119.59
2023-05-06T03:26:34.015Z,116.19
2023-05-06T03:27:34.050Z,115.46
2023-05-06T03:28:34.039Z,116.31
2023-05-06T03:29:34.068Z,115.00
2023-05-06T03:30:34.115Z,117.84
2023-05-06T03:31:34.164Z,118.37
2023-05-06T03:32:34.190Z,116.06
2023-05-06T03:33:34.168Z,117.33
2023-05-06T03:34:34.209Z,115.41
2023-05-06T03:35:34.278Z,116.28
2023-05-06T03:36:34.263Z,117.34
2023-05-06T03:37:34.290Z,116.27
2023-05-06T03:38:34.308Z,114.32
2023-05-06T03:39:34.321Z,114.97
2023-05-06T03:40:34.338Z,115.60
2023-05-06T03:41:34.360Z,115.95
2023-05-06T03:42:34.389Z,113.06
2023-05-06T03:43:34.412Z,116.75
2023-05-06T03:44:34.429Z,114.34
2023-05-06T03:45:34.440Z,113.53
2023-05-06T03:46:34.522Z,115.03
2023-05-06T03:47:34.575Z,115.56
2023-05-06T03:48:34.440Z,114.55
2023-05-06T03:49:34.444Z,115.61
2023-05-06T03:50:34.516Z,116.31
2023-05-06T03:51:34.503Z,112.99
2023-05-06T03:52:34.503Z,112.77
2023-05-06T03:53:34.502Z,112.05
2023-05-06T03:54:34.498Z,112.78
2023-05-06T03:55:34.526Z,114.14
2023-05-06T03:56:34.536Z,114.45
2023-05-06T03:57:34.529Z,116.95
2023-05-06T03:58:34.575Z,114.35
2023-05-06T03:59:34.565Z,114.14
2023-05-06T04:00:34.509Z,115.96
2023-05-06T04:01:34.485Z,112.87
2023-05-06T04:02:34.653Z,114.58
2023-05-06T04:03:34.546Z,113.19
2023-05-06T04:04:34.511Z,113.16
2023-05-06T04:05:34.537Z,111.78
2023-05-06T04:06:34.522Z,116.79
2023-05-06T04:07:34.497Z,111.34
2023-05-06T04:08:34.545Z,110.22
2023-05-06T04:09:34.560Z,113.21
2023-05-06T04:10:34.611Z,112.69
2023-05-06T04:11:34.637Z,114.14
2023-05-06T04:12:34.712Z,111.86
2023-05-06T04:13:34.682Z,112.26
2023-05-06T04:14:34.676Z,112.10
2023-05-06T04:15:34.724Z,115.06
2023-05-06T04:16:34.759Z,110.52
2023-05-06T04:17:34.769Z,113.39
2023-05-06T04:18:34.740Z,112.38
2023-05-06T04:19:34.880Z,111.36
2023-05-06T04:20:34.751Z,111.22
2023-05-06T04:21:34.771Z,111.62
2023-05-06T04:22:34.792Z,110.77
2023-05-06T04:23:34.802Z,110.55
2023-05-06T04:24:34.866Z,112.29
2023-05-06T04:25:34.886Z,113.17
2023-05-06T04:26:34.881Z,114.73
2023-05-06T04:27:34.880Z,111.50
2023-05-06T04:28:34.865Z,110.41
2023-05-06T04:29:34.884Z,111.88
2023-05-06T04:30:34.935Z,109.71
2023-05-06T04:31:35.001Z,111.49
2023-05-06T04:32:34.950Z,112.33
2023-05-06T04:33:34.958Z,111.89
2023-05-06T04:34:34.919Z,111.23
2023-05-06T04:35:35.009Z,115.26
2023-05-06T04:36:34.943Z,108.55
2023-05-06T04:37:34.951Z,110.35
2023-05-06T04:38:34.936Z,111.98
2023-05-06T04:39:34.915Z,113.85
2023-05-06T04:40:34.952Z,112.75
2023-05-06T04:41:34.951Z,113.32
2023-05-06T04:42:35.002Z,115.89
2023-05-06T04:43:34.996Z,107.47
2023-05-06T04:44:34.985Z,110.56
2023-05-06T04:45:35.032Z,109.54
2023-05-06T04:46:35.040Z,111.87
2023-05-06T04:47:35.053Z,109.32
2023-05-06T04:48:35.030Z,107.85
2023-05-06T04:49:35.013Z,109.87
2023-05-06T04:50:35.045Z,109.60
2023-05-06T04:51:35.080Z,109.76
2023-05-06T04:52:35.057Z,107.07
2023-05-06T04:53:35.036Z,110.55
2023-05-06T04:54:35.037Z,108.16
2023-05-06T04:55:35.055Z,107.45
2023-05-06T04:56:35.049Z,108.23
2023-05-06T04:57:35.080Z,108.58
2023-05-06T04:58:35.073Z,107.17
2023-05-06T04:59:35.071Z,108.22
2023-05-06T05:00:35.061Z,110.10
2023-05-06T05:01:35.157Z,109.25
2023-05-06T05:02:35.201Z,108.28
2023-05-06T05:03:35.188Z,109.53
2023-05-06T05:04:35.136Z,110.11
2023-05-06T05:05:35.141Z,108.68
2023-05-06T05:06:35.143Z,111.03
2023-05-06T05:07:35.150Z,107.88
2023-05-06T05:08:35.135Z,106.68
2023-05-06T05:09:35.217Z,109.57
2023-05-06T05:10:35.205Z,108.73
2023-05-06T05:11:35.243Z,109.51
2023-05-06T05:12:35.267Z,105.65
2023-05-06T05:13:35.235Z,107.01
2023-05-06T05:14:35.255Z,107.97
2023-05-06T05:15:35.299Z,108.44
2023-05-06T05:16:35.325Z,104.43
2023-05-06T05:17:35.341Z,105.03
2023-05-06T05:18:35.273Z,109.69
2023-05-06T05:19:35.269Z,107.69
2023-05-06T05:20:35.305Z,108.94
2023-05-06T05:21:35.294Z,106.79
2023-05-06T05:22:35.323Z,105.42
2023-05-06T05:23:35.408Z,105.50
2023-05-06T05:24:35.340Z,104.98
2023-05-06T05:25:35.390Z,105.09
2023-05-06T05:26:35.374Z,103.81
2023-05-06T05:27:35.389Z,106.52
2023-05-06T05:28:35.401Z,107.10
2023-05-06T05:29:35.450Z,107.59
2023-05-06T05:30:35.482Z,105.99
2023-05-06T05:31:35.508Z,106.50
2023-05-06T05:32:35.508Z,107.35
2023-05-06T05:33:35.534Z,104.52
2023-05-06T05:34:35.483Z,105.87
2023-05-06T05:35:35.489Z,106.64
2023-05-06T05:36:35.539Z,105.25
2023-05-06T05:37:35.557Z,107.49
2023-05-06T05:38:35.523Z,102.89
2023-05-06T05:39:35.615Z,104.43
2023-05-06T05:40:35.614Z,103.54
2023-05-06T05:41:35.641Z,104.57
2023-05-06T05:42:35.680Z,106.24
2023-05-06T05:43:35.672Z,104.19
2023-05-06T05:44:35.699Z,104.16
2023-05-06T05:45:35.760Z,103.64
2023-05-06T05:46:35.788Z,103.24
2023-05-06T05:47:35.844Z,103.93
2023-05-06T05:48:35.806Z,106.20
2023-05-06T05:49:35.896Z,106.13
2023-05-06T05:50:35.890Z,104.47
2023-05-06T05:51:36.782Z,106.73
2023-05-06T05:52:35.990Z,105.85
2023-05-06T05:53:35.979Z,104.80
2023-05-06T05:54:35.965Z,104.02
2023-05-06T05:55:36.245Z,105.65
2023-05-06T05:56:36.032Z,104.23
2023-05-06T05:57:36.063Z,103.99
2023-05-06T05:58:36.094Z,100.54
2023-05-06T05:59:36.101Z,99.99
2023-05-06T06:00:36.137Z,105.66
2023-05-06T06:01:36.109Z,101.31
2023-05-06T06:02:36.206Z,101.30
2023-05-06T06:03:36.290Z,100.26
2023-05-06T06:04:36.167Z,100.53
2023-05-06T06:05:36.136Z,101.05
2023-05-06T06:06:36.177Z,99.82
2023-05-06T06:07:36.194Z,95.32
2023-05-06T06:08:36.216Z,101.32
2023-05-06T06:09:36.245Z,100.13
2023-05-06T06:10:36.246Z,98.42
2023-05-06T06:11:36.247Z,100.59
2023-05-06T06:12:36.328Z,102.79
2023-05-06T06:13:36.303Z,100.12
2023-05-06T06:14:36.299Z,101.58
2023-05-06T06:15:36.347Z,100.05
2023-05-06T06:16:36.459Z,104.44
2023-05-06T06:17:36.478Z,101.49
2023-05-06T06:18:36.420Z,100.61
2023-05-06T06:19:36.447Z,100.72
2023-05-06T06:20:36.506Z,101.06
2023-05-06T06:21:36.534Z,102.00
2023-05-06T06:22:36.525Z,100.83
2023-05-06T06:23:36.565Z,102.03
2023-05-06T06:24:36.608Z,102.17
2023-05-06T06:25:36.604Z,98.38
2023-05-06T06:26:36.631Z,99.32
2023-05-06T06:27:36.875Z,97.60
2023-05-06T06:28:36.679Z,99.36
2023-05-06T06:29:36.679Z,100.22
2023-05-06T06:30:36.705Z,98.20
2023-05-06T06:31:39.729Z,98.59
2023-05-06T06:32:36.760Z,101.71
2023-05-06T06:33:36.698Z,99.22
2023-05-06T06:34:36.676Z,97.96
2023-05-06T06:35:36.688Z,99.18
2023-05-06T06:36:36.695Z,96.90
2023-05-06T06:37:36.681Z,95.66
2023-05-06T06:38:36.669Z,98.55
2023-05-06T06:39:36.647Z,97.48
2023-05-06T06:40:36.650Z,99.59
2023-05-06T06:41:36.650Z,98.84
2023-05-06T06:42:36.617Z,98.40
2023-05-06T06:43:36.673Z,97.70
2023-05-06T06:44:36.619Z,96.58
2023-05-06T06:45:36.717Z,99.01
2023-05-06T06:46:36.625Z,98.43
2023-05-06T06:47:36.654Z,99.46
2023-05-06T06:48:36.609Z,98.49
2023-05-06T06:49:36.606Z,98.79
2023-05-06T06:50:36.586Z,98.31
2023-05-06T06:51:36.605Z,96.84
2023-05-06T06:52:37.411Z,97.57
2023-05-06T06:53:36.587Z,98.30
2023-05-06T06:54:36.538Z,96.13
2023-05-06T06:55:36.548Z,96.32
2023-05-06T06:56:36.567Z,92.25
2023-05-06T06:57:36.566Z,94.22
2023-05-06T06:58:36.546Z,94.38
2023-05-06T06:59:36.652Z,96.99
2023-05-06T07:00:36.514Z,94.49
2023-05-06T07:01:36.585Z,98.52
2023-05-06T07:02:36.555Z,97.94
2023-05-06T07:03:36.517Z,97.00
2023-05-06T07:04:36.577Z,95.81
2023-05-06T07:05:36.479Z,97.23
2023-05-06T07:06:36.458Z,97.58
2023-05-06T07:07:36.489Z,95.48
2023-05-06T07:08:36.459Z,92.72
2023-05-06T07:09:37.345Z,96.87
2023-05-06T07:10:36.478Z,91.48
2023-05-06T07:11:36.500Z,98.46
2023-05-06T07:12:36.574Z,97.35
2023-05-06T07:13:36.615Z,95.60
2023-05-06T07:14:36.665Z,95.77
2023-05-06T07:15:36.768Z,92.19
2023-05-06T07:16:36.837Z,94.85
2023-05-06T07:17:36.860Z,91.93
2023-05-06T07:18:36.906Z,94.66
2023-05-06T07:19:36.985Z,96.40
2023-05-06T07:20:37.044Z,92.03
2023-05-06T07:21:37.082Z,92.10
2023-05-06T07:22:37.142Z,94.97
2023-05-06T07:23:37.234Z,91.68
2023-05-06T07:24:37.252Z,96.54
2023-05-06T07:25:37.272Z,92.35
2023-05-06T07:26:37.339Z,93.34
2023-05-06T07:27:37.422Z,93.01
2023-05-06T07:28:37.477Z,95.65
2023-05-06T07:29:37.523Z,95.57
2023-05-06T07:30:37.575Z,95.89
2023-05-06T07:31:37.804Z,95.00
2023-05-06T07:32:38.491Z,94.61
2023-05-06T07:33:37.766Z,98.15
2023-05-06T07:34:37.848Z,92.36
2023-05-06T07:35:37.879Z,95.91
2023-05-06T07:36:39.994Z,96.97
2023-05-06T07:37:38.005Z,91.11
2023-05-06T07:38:38.039Z,94.38
2023-05-06T07:39:38.126Z,92.34
2023-05-06T07:40:38.184Z,93.24
2023-05-06T07:41:38.240Z,93.78
2023-05-06T07:42:38.288Z,92.64
2023-05-06T07:43:38.361Z,93.98
2023-05-06T07:44:38.430Z,95.13
2023-05-06T07:45:38.516Z,94.35
2023-05-06T07:46:38.628Z,95.11
2023-05-06T07:47:38.685Z,93.96
2023-05-06T07:48:38.644Z,92.82
2023-05-06T07:49:38.690Z,93.60
2023-05-06T07:50:38.750Z,92.52
2023-05-06T07:51:38.808Z,92.21
2023-05-06T07:52:38.858Z,95.36
2023-05-06T07:53:38.947Z,95.14
2023-05-06T07:54:39.002Z,91.89
2023-05-06T07:55:39.047Z,94.91
2023-05-06T07:56:39.073Z,92.27
2023-05-06T07:57:39.162Z,95.15
2023-05-06T07:58:39.177Z,93.42
2023-05-06T07:59:39.250Z,91.98
2023-05-06T08:00:39.318Z,91.80
2023-05-06T08:01:39.362Z,93.59
2023-05-06T08:02:39.456Z,92.03
2023-05-06T08:03:39.754Z,90.63
2023-05-06T08:04:39.566Z,89.23
2023-05-06T08:05:39.585Z,89.24
2023-05-06T08:06:39.623Z,91.53
2023-05-06T08:07:39.676Z,92.23
2023-05-06T08:08:39.735Z,90.56
2023-05-06T08:09:39.803Z,90.85
2023-05-06T08:10:39.887Z,92.08
2023-05-06T08:11:39.904Z,91.31
2023-05-06T08:12:39.973Z,91.64
2023-05-06T08:13:40.022Z,90.82
2023-05-06T08:14:40.076Z,88.29
2023-05-06T08:15:40.110Z,89.59
2023-05-06T08:16:40.231Z,86.89
2023-05-06T08:17:40.281Z,91.21
2023-05-06T08:18:40.297Z,90.88
2023-05-06T08:19:40.337Z,88.83
2023-05-06T08:20:40.391Z,88.84
2023-05-06T08:21:40.409Z,88.38
2023-05-06T08:22:40.532Z,87.32
2023-05-06T08:23:40.543Z,85.79
2023-05-06T08:24:40.595Z,88.07
2023-05-06T08:25:40.650Z,89.15
2023-05-06T08:26:40.707Z,87.78
2023-05-06T08:27:40.740Z,87.32
2023-05-06T08:28:40.751Z,87.85
2023-05-06T08:29:40.819Z,87.93
2023-05-06T08:30:40.862Z,87.61
2023-05-06T08:31:40.950Z,85.97
2023-05-06T08:32:40.990Z,91.30
2023-05-06T08:33:41.051Z,89.12
2023-05-06T08:34:41.058Z,87.18
2023-05-06T08:35:41.192Z,88.21
2023-05-06T08:36:41.196Z,86.50
2023-05-06T08:37:41.200Z,88.57
2023-05-06T08:38:41.267Z,86.98
2023-05-06T08:39:41.316Z,87.44
2023-05-06T08:40:41.374Z,86.85
2023-05-06T08:41:41.398Z,89.27
2023-05-06T08:42:41.407Z,85.84
2023-05-06T08:43:41.985Z,87.39
2023-05-06T08:44:41.497Z,84.84
2023-05-06T08:45:41.635Z,87.78
2023-05-06T08:46:41.616Z,87.37
2023-05-06T08:47:41.690Z,84.77
2023-05-06T08:48:41.699Z,87.04
2023-05-06T08:49:41.733Z,85.27
2023-05-06T08:50:41.759Z,85.04
2023-05-06T08:51:41.864Z,85.84
2023-05-06T08:52:41.952Z,82.68
2023-05-06T08:53:41.868Z,85.42
2023-05-06T08:54:41.991Z,84.24
2023-05-06T08:55:41.993Z,85.07
2023-05-06T08:56:42.020Z,83.77
2023-05-06T08:57:42.104Z,85.76
2023-05-06T08:58:42.096Z,85.05
2023-05-06T08:59:42.148Z,85.78
2023-05-06T09:00:42.196Z,84.56
2023-05-06T09:01:42.293Z,85.54
2023-05-06T09:02:43.250Z,79.13
2023-05-06T09:03:42.344Z,85.99
2023-05-06T09:04:42.365Z,84.81
2023-05-06T09:05:42.401Z,85.09
2023-05-06T09:06:42.415Z,85.57
2023-05-06T09:07:42.520Z,83.00
2023-05-06T09:08:42.476Z,86.09
2023-05-06T09:09:42.526Z,84.49
2023-05-06T09:10:42.598Z,84.72
2023-05-06T09:11:42.699Z,83.46
2023-05-06T09:12:42.699Z,85.61
2023-05-06T09:13:42.711Z,83.75
2023-05-06T09:14:42.725Z,82.33
2023-05-06T09:15:42.779Z,84.30
2023-05-06T09:16:42.858Z,82.54
2023-05-06T09:17:42.885Z,85.58
2023-05-06T09:18:42.903Z,85.22
2023-05-06T09:19:42.970Z,82.64
2023-05-06T09:20:43.005Z,83.85
2023-05-06T09:21:43.035Z,84.53
2023-05-06T09:22:43.082Z,84.57
2023-05-06T09:23:43.117Z,84.25
2023-05-06T09:24:43.180Z,85.72
2023-05-06T09:25:43.241Z,84.01
2023-05-06T09:26:43.257Z,84.85
2023-05-06T09:27:43.307Z,82.73
2023-05-06T09:28:43.334Z,79.84
2023-05-06T09:29:43.417Z,83.32
2023-05-06T09:30:43.487Z,80.43
2023-05-06T09:31:43.511Z,78.68
2023-05-06T09:32:43.553Z,83.51
2023-05-06T09:33:43.587Z,81.38
2023-05-06T09:34:43.599Z,80.73
2023-05-06T09:35:43.658Z,84.77
2023-05-06T09:36:43.706Z,81.96
2023-05-06T09:37:43.768Z,84.19
2023-05-06T09:38:43.761Z,81.34
2023-05-06T09:39:43.830Z,80.52
2023-05-06T09:40:43.877Z,81.30
2023-05-06T09:41:43.925Z,81.45
2023-05-06T09:42:43.995Z,80.30
2023-05-06T09:43:43.991Z,82.46
2023-05-06T09:44:44.072Z,82.39
2023-05-06T09:45:44.142Z,83.48
2023-05-06T09:46:44.192Z,81.56
2023-05-06T09:47:44.252Z,82.97
2023-05-06T09:48:44.264Z,80.94
2023-05-06T09:49:44.332Z,81.90
2023-05-06T09:50:44.387Z,80.62
2023-05-06T09:51:44.431Z,82.50
2023-05-06T09:52:44.460Z,77.51
2023-05-06T09:53:44.482Z,79.56
2023-05-06T09:54:44.583Z,82.06
2023-05-06T09:55:44.587Z,79.90
2023-05-06T09:56:44.618Z,80.00
2023-05-06T09:57:44.715Z,80.66
2023-05-06T09:58:44.770Z,77.70
2023-05-06T09:59:44.775Z,79.47
2023-05-06T10:00:44.839Z,80.77
2023-05-06T10:01:44.870Z,77.87
2023-05-06T10:02:45.105Z,81.17
2023-05-06T10:03:45.163Z,80.30
2023-05-06T10:04:45.129Z,76.51
2023-05-06T10:05:45.067Z,80.11
2023-05-06T10:06:45.094Z,76.79
2023-05-06T10:07:45.131Z,80.86
2023-05-06T10:08:45.158Z,81.21
2023-05-06T10:09:45.201Z,77.64
2023-05-06T10:10:45.268Z,78.89
2023-05-06T10:11:45.345Z,78.46
2023-05-06T10:12:45.413Z,80.69
2023-05-06T10:13:45.412Z,77.76
2023-05-06T10:14:45.473Z,80.44
2023-05-06T10:15:45.549Z,78.75
2023-05-06T10:16:45.558Z,81.15
2023-05-06T10:17:45.661Z,77.78
2023-05-06T10:18:45.626Z,79.02
2023-05-06T10:19:45.659Z,74.82
2023-05-06T10:20:45.727Z,77.01
2023-05-06T10:21:45.726Z,76.80
2023-05-06T10:22:45.793Z,78.40
2023-05-06T10:23:45.825Z,75.72
2023-05-06T10:24:45.866Z,76.21
2023-05-06T10:25:45.894Z,78.20
2023-05-06T10:26:45.906Z,79.48
2023-05-06T10:27:46.024Z,75.48
2023-05-06T10:28:45.984Z,77.41
2023-05-06T10:29:46.002Z,75.88
2023-05-06T10:30:46.038Z,78.11
2023-05-06T10:31:46.102Z,76.44
2023-05-06T10:32:46.198Z,76.42
2023-05-06T10:33:46.126Z,77.34
2023-05-06T10:34:46.182Z,76.48
2023-05-06T10:35:46.217Z,79.04
2023-05-06T10:36:46.216Z,76.57
2023-05-06T10:37:47.042Z,79.02
2023-05-06T10:38:46.379Z,74.73
2023-05-06T10:39:46.365Z,74.74
2023-05-06T10:40:46.418Z,73.95
2023-05-06T10:41:46.433Z,73.12
2023-05-06T10:42:46.419Z,75.06
2023-05-06T10:43:46.570Z,79.08
2023-05-06T10:44:46.492Z,77.21
2023-05-06T10:45:46.583Z,76.12
2023-05-06T10:46:46.576Z,78.01
2023-05-06T10:47:46.595Z,76.31
2023-05-06T10:48:46.622Z,77.65
2023-05-06T10:49:46.640Z,77.13
2023-05-06T10:50:46.877Z,73.79
2023-05-06T10:51:46.719Z,78.97
2023-05-06T10:52:46.729Z,75.16
2023-05-06T10:53:46.766Z,76.58
2023-05-06T10:54:46.806Z,77.12
2023-05-06T10:55:46.819Z,76.00
2023-05-06T10:56:46.864Z,78.41
2023-05-06T10:57:46.865Z,75.05
2023-05-06T10:58:46.909Z,71.76
2023-05-06T10:59:47.058Z,75.12
2023-05-06T11:00:47.030Z,73.23
2023-05-06T11:01:47.017Z,74.85
2023-05-06T11:02:47.674Z,73.98
2023-05-06T11:03:47.147Z,73.71
2023-05-06T11:04:47.127Z,76.81
2023-05-06T11:05:47.184Z,74.16
2023-05-06T11:06:48.051Z,72.30
2023-05-06T11:07:47.203Z,72.36
2023-05-06T11:08:47.206Z,74.73
2023-05-06T11:09:47.252Z,76.07
2023-05-06T11:10:47.330Z,72.20
2023-05-06T11:11:47.330Z,71.76
2023-05-06T11:12:47.417Z,71.78
2023-05-06T11:13:48.230Z,71.80
2023-05-06T11:14:47.396Z,72.65
2023-05-06T11:15:47.494Z,75.60
2023-05-06T11:16:47.487Z,75.52
2023-05-06T11:17:47.528Z,73.41
2023-05-06T11:18:47.490Z,71.72
2023-05-06T11:19:47.511Z,72.04
2023-05-06T11:20:47.528Z,72.85
2023-05-06T11:21:48.396Z,73.56
2023-05-06T11:22:47.576Z,74.34
2023-05-06T11:23:47.593Z,73.01
2023-05-06T11:24:47.628Z,74.47
2023-05-06T11:25:47.686Z,71.48
2023-05-06T11:26:47.716Z,74.26
2023-05-06T11:27:48.962Z,71.36
2023-05-06T11:28:47.730Z,72.75
2023-05-06T11:29:47.674Z,73.99
2023-05-06T11:30:47.709Z,74.68
2023-05-06T11:31:47.649Z,72.44
2023-05-06T11:32:47.720Z,72.86
2023-05-06T11:33:47.632Z,71.10
2023-05-06T11:34:47.616Z,74.34
2023-05-06T11:35:47.609Z,74.28
2023-05-06T11:36:47.644Z,70.50
2023-05-06T11:37:47.672Z,74.19
2023-05-06T11:38:47.611Z,69.17
2023-05-06T11:39:47.649Z,70.26
2023-05-06T11:40:47.618Z,70.75
2023-05-06T11:41:47.623Z,72.52
2023-05-06T11:42:47.575Z,71.71
2023-05-06T11:43:47.602Z,69.05
2023-05-06T11:44:47.592Z,70.55
2023-05-06T11:45:47.616Z,69.10
2023-05-06T11:46:47.660Z,68.98
2023-05-06T11:47:47.604Z,70.77
2023-05-06T11:48:47.552Z,68.93
2023-05-06T11:49:47.526Z,71.44
2023-05-06T11:50:47.645Z,74.14
2023-05-06T11:51:47.511Z,70.62
2023-05-06T11:52:47.519Z,73.24
2023-05-06T11:53:47.494Z,70.84
2023-05-06T11:54:49.007Z,68.45
2023-05-06T11:55:47.638Z,68.68
2023-05-06T11:56:47.674Z,69.07
2023-05-06T11:57:47.648Z,68.51
2023-05-06T11:58:47.668Z,71.28
2023-05-06T11:59:47.668Z,71.51
2023-05-06T12:00:49.051Z,70.34
2023-05-06T12:01:47.678Z,71.40
2023-05-06T12:02:47.839Z,72.62
2023-05-06T12:03:47.810Z,69.57
2023-05-06T12:04:47.750Z,66.67
2023-05-06T12:05:47.689Z,68.85
2023-05-06T12:06:47.692Z,71.02
2023-05-06T12:07:47.655Z,71.31
2023-05-06T12:08:47.622Z,71.45
2023-05-06T12:09:47.653Z,68.19
2023-05-06T12:10:47.655Z,68.05
2023-05-06T12:11:47.648Z,71.77
2023-05-06T12:12:47.629Z,66.15
2023-05-06T12:13:47.623Z,70.28
2023-05-06T12:14:47.587Z,67.76
2023-05-06T12:15:47.647Z,70.02
2023-05-06T12:16:47.652Z,66.95
2023-05-06T12:17:47.605Z,68.53
2023-05-06T12:18:47.607Z,69.26
2023-05-06T12:19:47.643Z,69.17
2023-05-06T12:20:47.595Z,69.10
2023-05-06T12:21:47.576Z,68.59
2023-05-06T12:22:47.566Z,69.43
2023-05-06T12:23:47.568Z,71.02
2023-05-06T12:24:47.527Z,68.94
2023-05-06T12:25:47.503Z,67.69
2023-05-06T12:26:47.567Z,68.03
2023-05-06T12:27:47.498Z,69.15
2023-05-06T12:28:47.493Z,68.06
2023-05-06T12:29:47.476Z,69.30
2023-05-06T12:30:47.484Z,69.00
2023-05-06T12:31:47.560Z,67.21
2023-05-06T12:32:47.512Z,69.31
2023-05-06T12:33:47.475Z,68.01
2023-05-06T12:34:47.470Z,66.72
2023-05-06T12:35:47.556Z,69.69
2023-05-06T12:36:47.458Z,68.44
2023-05-06T12:37:47.456Z,70.49
2023-05-06T12:38:47.465Z,67.54
2023-05-06T12:39:47.434Z,68.51
2023-05-06T12:40:47.456Z,68.61
2023-05-06T12:41:47.450Z,66.78